Barstow, Texas
Current Conditions -  °F | °C
As of 6:15 AM on Thursday 29 Jan 2015 (Local Time) from KPEQ Reporting Station
Clear Clear  
Wind Chill: 41°   Ceiling: Unl
Heat Index: 44°   Visibility: 10mi
Dew Point: 40°   Wind: 6mph
Humidity: 83%   Direction: 280°W
Pressure: 30.19"   Gusts: NA
Location:  31.46°N, 103.39°W
Report Text: KPEQ 291215Z AUTO 28005KT 10SM CLR 07/04 A3019 RMK AO2 T00690042
Loading
Personal Weather Stations






























Interactive Weather Map New forecast layout! Learn more

10-Day Weather Forecast

Advertisements
Track Severe Weather on mobile